Time;durP1;ratioP1;P1;durP2;ratioP2;P2;SDS_P1;SDS_P2;PMS_P1;PMS_P2;Temp;Humidity;BMP_temperature;BMP_pressure;BME280_temperature;BME280_humidity;BME280_pressure;Samples;Min_cycle;Max_cycle;Signal;HPM_P1;HPM_P2
2022/08/08 00:00:56;;;;;;;1.30;1.20;;;24.20;65.40;;;;;;5094054;28;20591;-70
2022/08/08 00:03:36;;;;;;;1.23;1.20;;;24.20;65.40;;;;;;5076646;28;20552;-70
2022/08/08 00:06:15;;;;;;;1.00;1.00;;;24.20;65.40;;;;;;5112026;28;20304;-70
2022/08/08 00:09:07;;;;;;;1.20;1.13;;;24.20;65.40;;;;;;5093637;28;20203;-70
2022/08/08 00:11:46;;;;;;;0.95;0.95;;;24.20;65.40;;;;;;5112193;28;20275;-70
2022/08/08 00:14:52;;;;;;;1.23;1.20;;;24.20;66.20;;;;;;5115941;28;20263;-70
2022/08/08 00:18:00;;;;;;;1.08;1.08;;;24.20;65.40;;;;;;5115980;28;20208;-70
2022/08/08 00:20:52;;;;;;;1.00;1.00;;;24.20;65.40;;;;;;5012975;28;20188;-70
2022/08/08 00:23:56;;;;;;;1.08;0.98;;;24.10;65.30;;;;;;5091765;28;20204;-70
2022/08/08 00:26:34;;;;;;;1.20;1.20;;;24.10;65.30;;;;;;5097661;28;20187;-70
2022/08/08 00:29:29;;;;;;;1.25;1.20;;;24.10;65.30;;;;;;5097840;28;20184;-70
2022/08/08 00:32:03;;;;;;;1.10;1.10;;;24.10;65.30;;;;;;5114008;28;20243;-70
2022/08/08 00:35:33;;;;;;;1.13;1.13;;;24.10;65.30;;;;;;5097562;28;20176;-70
2022/08/08 00:38:14;;;;;;;1.30;1.30;;;24.10;65.30;;;;;;5107820;28;20211;-70
2022/08/08 00:41:32;;;;;;;1.10;1.05;;;24.10;65.30;;;;;;5097529;28;20192;-70
2022/08/08 00:44:46;;;;;;;1.20;1.20;;;24.10;65.30;;;;;;5097059;28;20192;-70
2022/08/08 00:47:29;;;;;;;1.00;1.00;;;24.10;65.30;;;;;;5097677;28;20200;-70
2022/08/08 00:50:13;;;;;;;1.17;1.10;;;24.10;65.30;;;;;;5080298;28;20184;-70
2022/08/08 00:53:03;;;;;;;1.00;1.00;;;24.10;65.30;;;;;;5096745;28;20227;-70
2022/08/08 00:55:42;;;;;;;1.17;1.10;;;24.10;65.30;;;;;;5096771;28;20191;-70
2022/08/08 00:58:38;;;;;;;1.10;1.10;;;24.10;65.30;;;;;;5097157;28;20207;-71
2022/08/08 01:01:14;;;;;;;1.35;1.30;;;24.10;65.40;;;;;;5096981;28;20184;-70
2022/08/08 01:04:05;;;;;;;1.05;1.05;;;24.10;65.30;;;;;;5080271;28;20184;-70
2022/08/08 01:06:45;;;;;;;1.38;1.30;;;24.10;65.30;;;;;;5096820;28;20188;-70
2022/08/08 01:09:44;;;;;;;1.17;1.17;;;24.10;65.40;;;;;;5097046;28;20199;-70
2022/08/08 01:12:52;;;;;;;1.02;1.02;;;24.10;65.30;;;;;;5097572;28;20231;-70
2022/08/08 01:15:36;;;;;;;1.00;1.00;;;24.10;65.30;;;;;;5096880;28;20180;-70
2022/08/08 01:18:23;;;;;;;1.50;1.17;;;24.10;65.30;;;;;;5079969;28;20272;-70
2022/08/08 01:21:31;;;;;;;1.08;1.08;;;24.10;65.40;;;;;;5096742;28;20177;-71
2022/08/08 01:25:02;;;;;;;1.15;1.05;;;24.10;65.30;;;;;;5094893;28;20192;-70
2022/08/08 01:28:04;;;;;;;1.20;1.20;;;24.10;65.30;;;;;;5084648;28;20228;-70
2022/08/08 01:30:54;;;;;;;1.40;1.40;;;24.10;65.30;;;;;;5096632;28;20267;-70
2022/08/08 01:33:53;;;;;;;1.38;1.30;;;24.10;65.30;;;;;;5079445;28;20281;-70
2022/08/08 01:37:08;;;;;;;1.10;1.10;;;24.10;65.60;;;;;;5079821;28;20666;-71
2022/08/08 01:39:57;;;;;;;1.48;1.40;;;24.10;65.40;;;;;;5079337;28;20271;-70
2022/08/08 01:42:44;;;;;;;1.15;1.15;;;24.10;65.60;;;;;;5078949;28;20233;-71
2022/08/08 01:45:44;;;;;;;1.35;1.25;;;24.10;65.40;;;;;;5096142;28;20184;-70
2022/08/08 01:48:45;;;;;;;1.30;1.30;;;24.10;65.40;;;;;;5096126;28;20203;-70
2022/08/08 01:51:55;;;;;;;1.35;1.25;;;24.10;65.40;;;;;;5095955;28;20214;-72
2022/08/08 01:54:50;;;;;;;0.90;0.90;;;24.00;65.40;;;;;;5095711;28;20180;-70
2022/08/08 01:57:57;;;;;;;1.30;1.20;;;24.10;65.40;;;;;;5096198;28;20253;-70
2022/08/08 02:00:39;;;;;;;1.20;1.05;;;24.10;65.40;;;;;;5095475;28;20176;-70
2022/08/08 02:03:32;;;;;;;1.27;1.27;;;24.10;65.60;;;;;;5095387;28;20187;-70
2022/08/08 02:07:14;;;;;;;1.27;1.15;;;24.10;65.50;;;;;;5095901;28;20186;-70
2022/08/08 02:09:50;;;;;;;1.30;1.30;;;24.10;65.40;;;;;;4995046;28;20302;-70
2022/08/08 02:12:47;;;;;;;1.38;1.30;;;24.00;65.40;;;;;;4994447;28;20247;-70
2022/08/08 02:15:31;;;;;;;1.33;1.30;;;24.00;65.40;;;;;;5095137;28;20259;-70
2022/08/08 02:18:23;;;;;;;1.52;1.42;;;24.00;65.30;;;;;;5112554;28;20291;-71
2022/08/08 02:24:11;;;;;;;1.30;1.20;;;24.00;65.40;;;;;;5094913;28;20180;-70
2022/08/08 02:26:50;;;;;;;1.40;1.30;;;24.00;65.50;;;;;;5078609;28;20184;-70
2022/08/08 02:29:47;;;;;;;1.50;1.40;;;24.00;65.40;;;;;;5112611;28;20180;-70
2022/08/08 02:32:47;;;;;;;1.30;1.30;;;24.00;65.40;;;;;;5111724;28;20243;-70
2022/08/08 02:35:55;;;;;;;1.27;1.17;;;24.00;65.50;;;;;;5083411;28;20211;-71
2022/08/08 02:38:47;;;;;;;1.35;1.30;;;24.00;65.50;;;;;;5094488;28;20212;-70
2022/08/08 02:41:50;;;;;;;1.10;1.10;;;24.00;65.50;;;;;;5079994;28;20180;-71
2022/08/08 02:44:46;;;;;;;1.30;1.30;;;24.00;65.50;;;;;;5115844;27;20187;-71
2022/08/08 02:47:18;;;;;;;1.60;1.50;;;24.00;65.50;;;;;;5081193;28;20196;-70
2022/08/08 02:50:28;;;;;;;1.33;1.27;;;24.00;65.50;;;;;;5095252;28;20188;-70
2022/08/08 02:53:34;;;;;;;1.30;1.30;;;24.00;65.50;;;;;;5110875;28;20300;-70
2022/08/08 02:56:15;;;;;;;1.30;1.20;;;24.00;65.40;;;;;;5111741;28;20218;-70
2022/08/08 02:59:36;;;;;;;1.45;1.38;;;24.00;65.50;;;;;;5094775;28;20238;-70
2022/08/08 03:02:19;;;;;;;1.33;1.25;;;24.00;65.60;;;;;;5077656;28;20271;-70
2022/08/08 03:05:27;;;;;;;1.65;1.55;;;24.00;66.30;;;;;;5112990;28;20205;-70
2022/08/08 03:08:50;;;;;;;1.50;1.40;;;24.00;65.40;;;;;;5094625;28;20214;-70
2022/08/08 03:11:40;;;;;;;1.45;1.35;;;24.00;65.60;;;;;;5112869;28;20289;-70
2022/08/08 03:14:34;;;;;;;1.40;1.30;;;24.00;65.40;;;;;;5111180;28;20176;-70
2022/08/08 03:17:12;;;;;;;1.60;1.50;;;24.00;65.30;;;;;;5094516;28;20247;-70
2022/08/08 03:20:10;;;;;;;1.45;1.40;;;24.00;65.40;;;;;;5061811;28;20188;-70
2022/08/08 03:22:50;;;;;;;1.38;1.38;;;23.90;65.30;;;;;;5093930;28;20701;-70
2022/08/08 03:25:21;;;;;;;1.40;1.40;;;24.00;65.30;;;;;;5094421;28;20182;-70
2022/08/08 03:27:58;;;;;;;1.30;1.30;;;24.00;65.40;;;;;;5094316;28;20210;-70
2022/08/08 03:30:26;;;;;;;1.60;1.50;;;24.00;65.30;;;;;;5094326;28;20194;-70
2022/08/08 03:35:41;;;;;;;1.60;1.50;;;23.90;65.30;;;;;;5095322;28;20172;-70
2022/08/08 03:38:08;;;;;;;1.42;1.33;;;23.90;65.40;;;;;;5077153;28;20200;-70
2022/08/08 03:40:35;;;;;;;1.60;1.50;;;23.90;65.40;;;;;;5094154;28;20187;-70
2022/08/08 03:43:07;;;;;;;1.60;1.50;;;23.90;65.50;;;;;;5093663;28;20237;-71
2022/08/08 03:45:34;;;;;;;1.33;1.30;;;23.90;65.50;;;;;;5093568;28;20267;-71
2022/08/08 03:48:06;;;;;;;1.30;1.30;;;24.00;65.60;;;;;;5094261;28;20204;-70
2022/08/08 03:50:40;;;;;;;1.30;1.30;;;24.00;65.50;;;;;;5111023;28;20248;-70
2022/08/08 03:53:10;;;;;;;1.48;1.38;;;23.90;65.40;;;;;;5091580;28;20227;-70
2022/08/08 03:55:42;;;;;;;1.23;1.23;;;23.90;65.30;;;;;;5094426;28;20271;-70
2022/08/08 03:58:18;;;;;;;1.25;1.20;;;23.90;65.40;;;;;;5094090;28;20253;-70
2022/08/08 04:00:56;;;;;;;1.20;1.20;;;23.90;65.30;;;;;;5093945;28;20658;-70
2022/08/08 04:03:35;;;;;;;1.85;1.70;;;23.90;65.20;;;;;;5077215;28;20184;-70
2022/08/08 04:06:06;;;;;;;1.70;1.60;;;23.90;65.30;;;;;;5077311;28;20180;-70
2022/08/08 04:08:36;;;;;;;2.00;1.90;;;23.90;65.40;;;;;;5093619;28;20206;-70
2022/08/08 04:11:18;;;;;;;1.90;1.80;;;23.90;65.40;;;;;;5110994;28;20223;-71
2022/08/08 04:13:45;;;;;;;1.83;1.73;;;23.90;65.40;;;;;;5093306;28;20271;-70
2022/08/08 04:16:11;;;;;;;1.73;1.63;;;23.90;65.40;;;;;;5093959;28;20269;-72
2022/08/08 04:18:41;;;;;;;1.85;1.75;;;23.90;65.40;;;;;;5093824;28;20231;-70
2022/08/08 04:21:07;;;;;;;1.83;1.73;;;23.90;65.40;;;;;;5110739;28;20215;-70
2022/08/08 04:23:33;;;;;;;1.83;1.73;;;23.90;65.40;;;;;;5076337;28;20267;-70
2022/08/08 04:25:59;;;;;;;1.95;1.85;;;23.90;65.20;;;;;;5093661;28;20279;-71
2022/08/08 04:28:26;;;;;;;1.63;1.52;;;23.90;65.20;;;;;;5110661;28;20204;-70
2022/08/08 04:30:52;;;;;;;1.80;1.70;;;23.90;65.30;;;;;;5110639;28;20184;-71
2022/08/08 04:33:18;;;;;;;1.80;1.70;;;23.90;65.20;;;;;;5110142;28;20176;-70
2022/08/08 04:35:44;;;;;;;1.98;1.88;;;23.90;65.30;;;;;;5091425;28;20173;-71
2022/08/08 04:38:10;;;;;;;1.88;1.77;;;23.90;65.40;;;;;;5073108;28;20204;-70
2022/08/08 04:40:40;;;;;;;1.65;1.55;;;23.90;65.20;;;;;;5073718;28;20187;-70
2022/08/08 04:43:06;;;;;;;1.80;1.70;;;23.80;65.10;;;;;;5056491;28;20189;-70
2022/08/08 04:45:36;;;;;;;2.15;1.95;;;23.90;65.40;;;;;;5073344;28;20683;-70
2022/08/08 04:48:04;;;;;;;1.70;1.60;;;23.90;65.40;;;;;;5073121;28;20204;-70
2022/08/08 04:50:34;;;;;;;1.92;1.83;;;23.90;65.40;;;;;;5073650;28;20187;-70
2022/08/08 04:53:00;;;;;;;2.17;2.08;;;23.80;65.20;;;;;;5072657;28;20239;-70
2022/08/08 04:55:26;;;;;;;2.17;2.00;;;23.80;65.20;;;;;;5091441;28;20173;-70
2022/08/08 04:57:52;;;;;;;2.05;1.77;;;23.80;65.30;;;;;;5091524;28;20215;-70
2022/08/08 05:00:18;;;;;;;2.10;2.00;;;23.90;65.40;;;;;;5060109;28;20184;-71
2022/08/08 05:02:44;;;;;;;2.28;2.17;;;23.80;65.20;;;;;;5059903;28;20196;-70
2022/08/08 05:05:10;;;;;;;1.92;1.83;;;23.90;65.40;;;;;;5076767;28;20275;-70
2022/08/08 05:07:36;;;;;;;1.90;1.80;;;23.80;65.30;;;;;;5076512;28;20300;-70
2022/08/08 05:10:05;;;;;;;2.00;1.90;;;23.80;65.30;;;;;;5076998;28;20181;-70
2022/08/08 05:12:33;;;;;;;1.65;1.55;;;23.80;65.30;;;;;;5059805;28;20205;-72
2022/08/08 05:14:59;;;;;;;1.98;1.80;;;23.80;65.10;;;;;;5059908;28;20724;-70
2022/08/08 05:17:26;;;;;;;1.60;1.50;;;23.80;65.10;;;;;;5076516;28;20231;-70
2022/08/08 05:19:52;;;;;;;1.55;1.45;;;23.80;65.20;;;;;;5059886;28;20181;-70
2022/08/08 05:22:22;;;;;;;1.80;1.70;;;23.80;65.20;;;;;;5060160;28;20656;-71
2022/08/08 05:24:49;;;;;;;1.75;1.65;;;23.80;65.20;;;;;;5059813;28;20184;-70
2022/08/08 05:27:21;;;;;;;1.90;1.80;;;23.80;65.20;;;;;;5060419;28;20258;-70
2022/08/08 05:29:47;;;;;;;1.65;1.55;;;23.80;65.20;;;;;;5076231;28;20197;-70
2022/08/08 05:32:14;;;;;;;2.13;2.03;;;23.80;65.30;;;;;;5076473;28;20303;-70
2022/08/08 05:34:50;;;;;;;1.90;1.80;;;23.80;65.30;;;;;;5075522;28;20177;-70
2022/08/08 05:37:26;;;;;;;1.88;1.77;;;23.80;65.30;;;;;;5094364;28;20244;-70
2022/08/08 05:39:55;;;;;;;1.95;1.85;;;23.80;65.40;;;;;;5079671;28;20184;-70
2022/08/08 05:42:50;;;;;;;2.05;1.95;;;23.80;65.40;;;;;;5095970;28;20184;-70
2022/08/08 05:45:17;;;;;;;1.80;1.70;;;23.80;65.40;;;;;;5096336;28;20191;-70
2022/08/08 05:47:44;;;;;;;1.83;1.73;;;23.80;65.40;;;;;;5112995;28;20691;-70
2022/08/08 05:50:11;;;;;;;1.80;1.70;;;23.80;65.40;;;;;;5096462;28;20278;-70
2022/08/08 05:52:38;;;;;;;1.70;1.60;;;23.80;65.40;;;;;;5095730;28;20299;-70
2022/08/08 05:55:10;;;;;;;1.60;1.50;;;23.80;65.50;;;;;;5114017;28;20565;-71
2022/08/08 05:57:38;;;;;;;2.03;1.85;;;23.80;65.50;;;;;;5112533;28;20202;-70
2022/08/08 06:00:09;;;;;;;1.95;1.85;;;23.80;65.50;;;;;;5092130;28;20185;-70
2022/08/08 06:05:50;;;;;;;1.60;1.50;;;23.80;65.50;;;;;;5075677;28;20192;-71
2022/08/08 06:08:28;;;;;;;1.80;1.70;;;23.80;65.60;;;;;;5058755;28;20219;-71
2022/08/08 06:10:58;;;;;;;1.90;1.80;;;23.80;65.60;;;;;;5075212;28;20184;-70
2022/08/08 06:13:29;;;;;;;1.58;1.48;;;23.80;65.50;;;;;;5074760;28;20181;-70
2022/08/08 06:15:56;;;;;;;1.60;1.50;;;23.80;65.50;;;;;;5058763;28;20641;-70
2022/08/08 06:18:29;;;;;;;1.80;1.70;;;23.80;65.50;;;;;;5059842;28;20250;-70
2022/08/08 06:21:00;;;;;;;1.67;1.58;;;23.80;65.50;;;;;;5075348;28;20235;-70
2022/08/08 06:23:28;;;;;;;1.60;1.50;;;23.80;65.50;;;;;;5074942;28;20667;-70
2022/08/08 06:26:04;;;;;;;1.80;1.70;;;23.80;65.50;;;;;;5058696;28;20185;-70
2022/08/08 06:29:01;;;;;;;1.92;1.83;;;23.80;65.60;;;;;;5075118;28;20196;-70
2022/08/08 06:31:35;;;;;;;1.75;1.65;;;23.80;66.40;;;;;;5074022;28;20300;-71
2022/08/08 06:34:26;;;;;;;1.92;1.70;;;23.80;65.70;;;;;;5060471;28;20199;-70
2022/08/08 06:36:58;;;;;;;1.85;1.75;;;23.80;65.60;;;;;;5089639;28;20549;-70
2022/08/08 06:39:28;;;;;;;1.63;1.52;;;23.80;65.50;;;;;;5094791;28;20207;-70
2022/08/08 06:42:03;;;;;;;1.60;1.50;;;23.80;65.50;;;;;;5112150;28;20184;-70
2022/08/08 06:44:41;;;;;;;1.73;1.63;;;23.80;65.50;;;;;;5094724;28;20210;-70
2022/08/08 06:47:07;;;;;;;1.70;1.60;;;23.80;65.50;;;;;;5111927;28;20203;-71
2022/08/08 06:49:35;;;;;;;1.85;1.70;;;23.80;65.50;;;;;;5095112;28;20188;-71
2022/08/08 06:52:02;;;;;;;1.80;1.70;;;23.80;65.50;;;;;;5094844;28;20268;-70
2022/08/08 06:54:31;;;;;;;1.80;1.70;;;23.80;65.70;;;;;;5094541;28;20187;-70
2022/08/08 06:56:58;;;;;;;1.77;1.67;;;23.80;65.60;;;;;;5094846;28;20192;-71
2022/08/08 06:59:25;;;;;;;2.00;1.90;;;23.80;65.70;;;;;;5078282;28;20220;-70
2022/08/08 07:02:03;;;;;;;1.80;1.70;;;23.80;65.70;;;;;;5112057;28;20191;-71
2022/08/08 07:05:01;;;;;;;1.58;1.48;;;23.80;65.70;;;;;;5111144;28;20191;-70
2022/08/08 07:08:16;;;;;;;1.50;1.40;;;23.80;65.60;;;;;;5077725;28;20242;-70
2022/08/08 07:10:49;;;;;;;1.70;1.60;;;23.80;65.70;;;;;;5049842;28;20190;-70
2022/08/08 07:13:18;;;;;;;1.50;1.40;;;23.80;65.60;;;;;;5049299;28;20220;-70
2022/08/08 07:16:21;;;;;;;1.75;1.65;;;23.80;65.60;;;;;;5078992;28;20279;-70
2022/08/08 07:19:06;;;;;;;1.83;1.73;;;23.80;65.70;;;;;;5094557;28;20231;-70
2022/08/08 07:22:05;;;;;;;1.65;1.52;;;23.80;65.50;;;;;;5111409;28;20183;-70
2022/08/08 07:24:42;;;;;;;1.98;1.60;;;23.80;65.50;;;;;;5086153;28;20199;-71
2022/08/08 07:27:12;;;;;;;1.50;1.40;;;23.80;65.70;;;;;;5111169;28;20580;-70
2022/08/08 07:29:39;;;;;;;1.10;1.08;;;23.80;65.60;;;;;;5077604;28;20184;-70
2022/08/08 07:32:09;;;;;;;1.58;1.45;;;23.80;65.70;;;;;;5094265;28;20214;-70
2022/08/08 07:34:36;;;;;;;1.63;1.52;;;23.80;65.70;;;;;;5093758;28;20180;-70
2022/08/08 07:37:12;;;;;;;1.60;1.50;;;23.80;65.60;;;;;;5111039;28;20195;-70
2022/08/08 07:39:43;;;;;;;1.50;1.40;;;23.80;65.60;;;;;;5110675;28;20211;-70
2022/08/08 07:42:14;;;;;;;1.70;1.60;;;23.80;65.70;;;;;;5077386;28;20199;-71
2022/08/08 07:44:41;;;;;;;1.60;1.50;;;23.80;65.60;;;;;;5093764;28;20557;-70
2022/08/08 07:47:09;;;;;;;1.70;1.60;;;23.80;65.60;;;;;;5077539;28;20682;-71
2022/08/08 07:49:36;;;;;;;1.63;1.52;;;23.80;65.50;;;;;;5094169;28;20187;-70
2022/08/08 07:52:06;;;;;;;1.70;1.60;;;23.80;65.50;;;;;;5093927;28;20214;-71
2022/08/08 07:54:47;;;;;;;1.40;1.35;;;23.80;65.50;;;;;;5076556;28;20207;-70
2022/08/08 07:57:42;;;;;;;1.70;1.60;;;23.80;65.40;;;;;;5093072;28;20215;-70
2022/08/08 08:00:14;;;;;;;1.50;1.40;;;23.80;65.40;;;;;;5077623;28;20910;-70
2022/08/08 08:03:12;;;;;;;1.80;1.67;;;23.90;65.20;;;;;;5093863;28;20199;-71
2022/08/08 08:05:48;;;;;;;1.50;1.40;;;23.90;65.10;;;;;;5094084;28;20191;-70
2022/08/08 08:08:18;;;;;;;1.50;1.40;;;24.00;65.20;;;;;;5111029;28;20694;-70
2022/08/08 08:10:49;;;;;;;1.90;1.67;;;24.00;65.20;;;;;;5093861;28;20189;-70
2022/08/08 08:13:45;;;;;;;1.58;1.48;;;24.00;65.20;;;;;;5093319;28;20249;-71
2022/08/08 08:16:22;;;;;;;1.70;1.60;;;24.00;65.20;;;;;;5094110;28;20208;-70
2022/08/08 08:18:58;;;;;;;1.52;1.42;;;24.00;65.20;;;;;;5093961;28;20283;-70
2022/08/08 08:21:37;;;;;;;1.63;1.52;;;24.00;65.20;;;;;;5093803;28;20187;-70
2022/08/08 08:24:04;;;;;;;1.60;1.50;;;24.00;65.20;;;;;;5076360;28;20187;-70
2022/08/08 08:26:30;;;;;;;1.40;1.30;;;24.10;65.00;;;;;;5093276;28;20191;-70
2022/08/08 08:28:57;;;;;;;1.90;1.80;;;24.10;65.20;;;;;;5076488;28;20180;-71
2022/08/08 08:31:24;;;;;;;1.77;1.67;;;24.10;65.20;;;;;;5110945;28;20216;-70
2022/08/08 08:33:51;;;;;;;1.58;1.50;;;24.10;65.00;;;;;;5113466;28;20208;-70
2022/08/08 08:36:19;;;;;;;1.65;1.55;;;24.10;65.00;;;;;;5123854;27;20230;-70
2022/08/08 08:38:45;;;;;;;1.70;1.60;;;24.10;65.00;;;;;;5097445;28;20200;-70
2022/08/08 08:41:14;;;;;;;1.90;1.80;;;24.10;65.10;;;;;;5080637;28;20176;-70
2022/08/08 08:43:45;;;;;;;1.33;1.30;;;24.10;65.00;;;;;;5114169;28;20263;-70
2022/08/08 08:46:13;;;;;;;1.50;1.40;;;24.10;65.00;;;;;;5097405;28;20212;-70
2022/08/08 08:48:43;;;;;;;1.60;1.50;;;24.20;64.90;;;;;;5114320;28;20200;-70
2022/08/08 08:51:13;;;;;;;1.15;1.15;;;24.20;65.00;;;;;;5095168;28;20231;-70
2022/08/08 08:53:50;;;;;;;1.67;1.58;;;24.20;65.10;;;;;;5085285;28;20776;-70
2022/08/08 08:56:24;;;;;;;1.55;1.45;;;24.20;65.30;;;;;;5089686;28;20207;-70
2022/08/08 08:58:52;;;;;;;1.70;1.60;;;24.20;65.00;;;;;;5097313;28;20207;-70
2022/08/08 09:01:29;;;;;;;1.70;1.25;;;24.20;64.80;;;;;;5096678;28;20207;-70
2022/08/08 09:04:07;;;;;;;1.77;1.67;;;24.30;65.00;;;;;;5080171;28;20184;-71
2022/08/08 09:06:40;;;;;;;1.65;1.50;;;24.20;65.00;;;;;;5097062;28;20685;-70
2022/08/08 09:09:14;;;;;;;1.98;1.77;;;24.20;64.60;;;;;;5083524;28;20195;-70
2022/08/08 09:11:45;;;;;;;1.80;1.70;;;24.20;64.60;;;;;;5096996;28;20216;-70
2022/08/08 09:14:13;;;;;;;1.50;1.40;;;24.20;64.60;;;;;;5113325;28;20188;-70
2022/08/08 09:16:39;;;;;;;1.63;1.52;;;24.30;64.80;;;;;;5113931;28;20184;-70
2022/08/08 09:19:06;;;;;;;1.60;1.50;;;24.20;65.00;;;;;;5113872;28;20263;-70
2022/08/08 09:21:33;;;;;;;1.60;1.50;;;24.20;64.90;;;;;;5096899;28;20237;-70
2022/08/08 09:24:01;;;;;;;1.30;1.23;;;24.20;64.60;;;;;;5096175;28;20195;-70
2022/08/08 09:26:56;;;;;;;1.67;1.58;;;24.20;64.90;;;;;;5113522;28;20180;-70
2022/08/08 09:29:24;;;;;;;1.75;1.65;;;24.30;64.90;;;;;;5113636;28;20184;-70
2022/08/08 09:32:41;;;;;;;1.75;1.65;;;24.30;64.90;;;;;;5113623;28;20208;-70
2022/08/08 09:35:24;;;;;;;1.60;1.50;;;24.30;64.90;;;;;;5096252;28;20216;-71
2022/08/08 09:37:53;;;;;;;1.70;1.60;;;24.30;64.70;;;;;;5096493;28;20204;-70
2022/08/08 09:40:30;;;;;;;1.30;1.27;;;24.30;64.70;;;;;;5097363;28;20195;-70
2022/08/08 09:43:20;;;;;;;1.50;1.40;;;24.30;64.70;;;;;;5112796;28;20180;-70
2022/08/08 09:46:05;;;;;;;1.42;1.33;;;24.30;64.70;;;;;;5095835;28;20180;-70
2022/08/08 09:48:34;;;;;;;1.50;1.40;;;24.30;64.70;;;;;;5096035;28;20211;-70
2022/08/08 09:51:02;;;;;;;1.77;1.67;;;24.30;64.20;;;;;;5078042;28;20246;-70
2022/08/08 09:53:47;;;;;;;1.52;1.42;;;24.30;64.50;;;;;;5075211;28;20181;-70
2022/08/08 09:56:14;;;;;;;1.60;1.50;;;24.30;64.30;;;;;;5076062;28;20185;-70
2022/08/08 09:58:52;;;;;;;1.50;1.40;;;24.30;64.10;;;;;;5075778;28;20192;-70
2022/08/08 10:01:22;;;;;;;1.40;1.40;;;24.30;64.10;;;;;;5075481;28;20184;-72
2022/08/08 10:03:50;;;;;;;1.38;1.30;;;24.30;63.80;;;;;;5075516;28;20326;-70
2022/08/08 10:06:18;;;;;;;1.58;1.30;;;24.30;64.10;;;;;;5075725;28;20180;-70
2022/08/08 10:08:47;;;;;;;1.50;1.40;;;24.30;64.30;;;;;;5075383;28;20262;-70
2022/08/08 10:11:22;;;;;;;1.60;1.40;;;24.30;64.50;;;;;;5075550;28;20181;-70
2022/08/08 10:14:01;;;;;;;1.50;1.40;;;24.30;64.60;;;;;;5074971;28;20545;-70
2022/08/08 10:16:42;;;;;;;1.50;1.40;;;24.30;64.20;;;;;;5075378;28;20211;-71
2022/08/08 10:19:10;;;;;;;1.17;1.17;;;24.30;64.10;;;;;;5075715;28;20177;-72
2022/08/08 10:21:37;;;;;;;1.73;1.40;;;24.30;64.00;;;;;;5093048;28;20274;-70
2022/08/08 10:24:10;;;;;;;1.40;1.30;;;24.30;64.20;;;;;;5094906;28;20195;-70
2022/08/08 10:26:47;;;;;;;1.52;1.42;;;24.30;64.20;;;;;;5112702;28;20211;-71
2022/08/08 10:29:14;;;;;;;1.27;1.27;;;24.30;64.00;;;;;;5104034;28;20184;-70
2022/08/08 10:34:28;;;;;;;1.42;1.33;;;24.30;64.00;;;;;;5111799;28;20184;-70
2022/08/08 10:36:55;;;;;;;1.63;1.52;;;24.30;64.00;;;;;;5112276;28;20250;-70
2022/08/08 10:39:29;;;;;;;1.60;1.50;;;24.30;64.30;;;;;;5113450;28;20176;-70
2022/08/08 10:42:03;;;;;;;1.55;1.45;;;24.30;64.10;;;;;;5112434;28;20207;-70
2022/08/08 10:44:40;;;;;;;1.33;1.23;;;24.40;64.30;;;;;;5112775;28;20184;-71
2022/08/08 10:47:18;;;;;;;1.50;1.40;;;24.30;64.10;;;;;;5111854;28;20245;-70
2022/08/08 10:49:53;;;;;;;1.70;1.60;;;24.40;64.00;;;;;;5095406;28;20183;-70
2022/08/08 10:52:30;;;;;;;1.50;1.40;;;24.40;63.90;;;;;;5078133;28;20233;-70
2022/08/08 10:54:59;;;;;;;1.45;1.35;;;24.30;63.60;;;;;;5093921;28;20283;-70
2022/08/08 10:57:25;;;;;;;1.30;1.20;;;24.30;63.20;;;;;;5112991;28;20200;-71
2022/08/08 10:59:58;;;;;;;1.27;1.20;;;24.30;63.50;;;;;;5112598;28;20233;-70
2022/08/08 11:02:30;;;;;;;1.10;1.10;;;24.30;63.70;;;;;;5094849;28;20191;-70
2022/08/08 11:04:59;;;;;;;1.23;1.20;;;24.30;63.50;;;;;;5077416;28;20629;-70
2022/08/08 11:07:35;;;;;;;1.50;1.40;;;24.30;63.70;;;;;;5094568;28;20231;-70
2022/08/08 11:10:12;;;;;;;1.30;1.30;;;24.40;63.90;;;;;;5094855;28;20647;-70
2022/08/08 11:13:05;;;;;;;1.40;1.30;;;24.30;63.70;;;;;;5111719;28;20215;-70
2022/08/08 11:15:30;;;;;;;1.23;1.23;;;24.30;63.40;;;;;;5089921;28;20192;-70
2022/08/08 11:17:56;;;;;;;1.42;1.33;;;24.30;63.50;;;;;;5111394;28;20683;-71
2022/08/08 11:20:27;;;;;;;1.27;1.27;;;24.40;63.90;;;;;;5077763;28;20188;-71
2022/08/08 11:22:59;;;;;;;1.63;1.52;;;24.40;63.40;;;;;;5094471;28;20188;-70
2022/08/08 11:25:27;;;;;;;1.42;1.33;;;24.40;63.00;;;;;;5077672;28;20184;-70
2022/08/08 11:27:56;;;;;;;1.23;1.23;;;24.40;63.20;;;;;;5112576;28;20196;-71
2022/08/08 11:30:26;;;;;;;1.70;1.60;;;24.40;64.00;;;;;;5094401;28;20241;-70
2022/08/08 11:32:55;;;;;;;1.30;1.23;;;24.40;63.50;;;;;;5112424;28;20210;-70
2022/08/08 11:35:24;;;;;;;1.50;1.40;;;24.40;64.40;;;;;;5112287;28;20176;-70
2022/08/08 11:37:50;;;;;;;1.30;1.30;;;24.40;63.30;;;;;;5111062;28;20578;-70
2022/08/08 11:40:16;;;;;;;1.52;1.42;;;24.40;62.80;;;;;;5094277;28;20195;-70
2022/08/08 11:42:43;;;;;;;1.30;1.30;;;24.40;63.10;;;;;;5112414;28;20215;-70
2022/08/08 11:45:11;;;;;;;1.20;1.17;;;24.40;63.10;;;;;;5076627;28;20243;-70
2022/08/08 11:47:39;;;;;;;1.40;1.30;;;24.40;62.90;;;;;;5111142;28;20206;-70
2022/08/08 11:50:12;;;;;;;1.65;1.55;;;24.40;63.40;;;;;;5107556;28;20244;-70
2022/08/08 11:52:40;;;;;;;1.40;1.30;;;24.40;63.30;;;;;;5111789;28;20204;-70
2022/08/08 11:55:25;;;;;;;1.33;1.17;;;24.40;63.40;;;;;;5093521;28;20282;-70
2022/08/08 11:58:31;;;;;;;1.65;1.35;;;24.40;63.40;;;;;;5093905;28;20273;-70
2022/08/08 12:00:57;;;;;;;1.10;1.10;;;24.40;63.00;;;;;;5099156;28;20247;-70
2022/08/08 12:03:32;;;;;;;1.40;1.30;;;24.40;62.90;;;;;;5111562;28;20176;-70
2022/08/08 12:06:11;;;;;;;1.15;1.15;;;24.40;63.00;;;;;;5094073;28;20184;-71
2022/08/08 12:08:37;;;;;;;1.60;1.50;;;24.40;63.30;;;;;;5080085;28;20217;-70
2022/08/08 12:11:11;;;;;;;1.20;1.20;;;24.40;63.30;;;;;;5098177;28;20199;-70
2022/08/08 12:13:37;;;;;;;1.48;1.40;;;24.40;63.10;;;;;;5097520;28;20655;-70
2022/08/08 12:16:16;;;;;;;1.63;1.17;;;24.40;63.10;;;;;;5097930;28;20233;-71
2022/08/08 12:18:53;;;;;;;1.40;1.40;;;24.40;62.90;;;;;;5081185;28;20220;-70
2022/08/08 12:21:31;;;;;;;1.27;1.20;;;24.40;63.70;;;;;;5097663;28;20233;-70
2022/08/08 12:24:13;;;;;;;1.20;1.20;;;24.40;62.70;;;;;;5097244;28;20180;-70
2022/08/08 12:26:41;;;;;;;1.52;1.42;;;24.40;62.90;;;;;;5115908;28;20179;-70
2022/08/08 12:29:34;;;;;;;1.20;1.20;;;24.40;63.10;;;;;;5097950;28;20184;-70
2022/08/08 12:32:10;;;;;;;1.40;1.30;;;24.40;62.90;;;;;;5097735;28;20603;-70
2022/08/08 12:34:56;;;;;;;1.10;1.10;;;24.40;62.90;;;;;;5097012;28;20180;-70
2022/08/08 12:37:29;;;;;;;1.48;1.40;;;24.40;62.50;;;;;;5115762;28;20273;-70
2022/08/08 12:40:10;;;;;;;1.75;1.40;;;24.40;62.80;;;;;;5115961;28;20185;-70
2022/08/08 12:42:47;;;;;;;1.48;1.27;;;24.40;63.50;;;;;;5097732;28;20201;-70
2022/08/08 12:45:14;;;;;;;1.70;1.60;;;24.40;63.70;;;;;;5115092;28;20195;-71
2022/08/08 12:47:40;;;;;;;1.33;1.20;;;24.40;62.70;;;;;;5114343;28;20256;-70
2022/08/08 12:50:07;;;;;;;1.38;1.38;;;24.40;62.50;;;;;;5114544;28;20179;-71
2022/08/08 12:52:33;;;;;;;1.10;1.10;;;24.40;62.90;;;;;;5097227;28;20212;-70
2022/08/08 12:55:09;;;;;;;1.10;1.10;;;24.40;63.20;;;;;;5079912;28;20253;-70
2022/08/08 12:57:36;;;;;;;1.55;1.13;;;24.40;63.10;;;;;;5097221;28;20204;-70
2022/08/08 13:00:05;;;;;;;1.10;1.10;;;24.40;62.80;;;;;;5097031;28;20595;-71
2022/08/08 13:02:39;;;;;;;1.40;1.30;;;24.40;62.70;;;;;;5097163;28;20237;-70
2022/08/08 13:05:18;;;;;;;1.30;1.20;;;24.40;62.90;;;;;;5113527;28;20183;-70
2022/08/08 13:07:44;;;;;;;2.42;1.15;;;24.40;62.50;;;;;;5115079;28;20212;-70
2022/08/08 13:10:13;;;;;;;1.45;1.20;;;24.40;62.50;;;;;;5114339;28;20176;-70
2022/08/08 13:12:44;;;;;;;1.20;1.20;;;24.40;62.20;;;;;;5079979;28;20216;-70
2022/08/08 13:15:16;;;;;;;1.33;1.15;;;24.40;62.50;;;;;;5113401;28;20199;-70
2022/08/08 13:17:43;;;;;;;1.20;1.10;;;24.40;62.20;;;;;;5096765;28;20200;-70
2022/08/08 13:20:18;;;;;;;1.48;1.35;;;24.40;62.10;;;;;;5114794;28;20173;-71
2022/08/08 13:22:45;;;;;;;1.10;1.10;;;24.40;62.00;;;;;;5096861;28;20188;-71
2022/08/08 13:25:22;;;;;;;1.30;1.20;;;24.40;62.20;;;;;;5114478;28;20655;-70
2022/08/08 13:27:54;;;;;;;1.20;1.20;;;24.40;62.50;;;;;;5079961;28;20248;-70
2022/08/08 13:30:24;;;;;;;1.30;1.20;;;24.40;62.40;;;;;;5113822;28;20186;-70
2022/08/08 13:32:55;;;;;;;1.60;1.50;;;24.40;62.30;;;;;;5096415;28;20309;-70
2022/08/08 13:35:24;;;;;;;1.67;1.20;;;24.40;62.50;;;;;;5095923;28;20275;-70
2022/08/08 13:37:50;;;;;;;1.42;1.33;;;24.40;62.40;;;;;;5079496;28;20211;-71
2022/08/08 13:40:18;;;;;;;1.30;1.20;;;24.40;62.10;;;;;;5096126;28;20180;-70
2022/08/08 13:42:44;;;;;;;1.08;1.08;;;24.40;62.10;;;;;;5113397;28;20187;-71
2022/08/08 13:45:12;;;;;;;1.27;1.20;;;24.40;62.00;;;;;;5112711;28;20184;-70
2022/08/08 13:47:39;;;;;;;1.38;1.35;;;24.40;61.70;;;;;;5113212;28;20203;-70
2022/08/08 13:50:08;;;;;;;1.27;1.27;;;24.40;61.80;;;;;;5114666;28;20195;-70
2022/08/08 13:52:44;;;;;;;1.48;1.38;;;24.40;61.90;;;;;;5096060;28;20640;-70